ePrivacy and GPDR Cookie Consent by Cookie Consent
EmailTwitter


Observations de surface / France / LFBO (07630)

Régions: Québec | Canada | États-Unis | Europe | France | UK | Ailleurs
Station
Affichage
Infos & localisation pour LFBO (07630) | Aide pour décoder les METARs

Observations prises le 2022-09-24 à 22H00 UTC à TOULOUSE/BLAGNAC, FR (LFBO)

Température: 15.0 Celsius

Point de rosée: 12.0 Celsius

Humidité relative: 82%

Vents: Ouest à 19 km/h ou 10 noeuds.

Pression au niveau moyen de la mer: 101.50 kilopascals.

Observation METAR:

LFBO 242200Z AUTO 26010KT CAVOK 15/12 Q1015 NOSIG=